Hartford, Connecticut
Traffic Map
Current Weather Conditions
Hartford, Connecticut
Clear
Clear
63°
Feels Like: 63°
Wind Chill: 63° Ceiling: Unl
Heat Index: 63° Visibility: 10mi
Dew Point: 41° Wind: 12mph
Humidity: 45% Direction: 330° (NNW)
Pressure: 30.12in Gusts: 22mph
Raw Report DataKHFD 300453Z AUTO 33010G19KT 270V350 10SM CLR 17/05 A3012 RMK AO2 SLP198 T01720050 402940161
Traffic Incident Summary
Active as of:
Severity:
Category:
InformationThere was an issue retrieving the traffic information for this location. Please try a different location or try again shortly.
Advertisements
Track Severe Weather on mobile